LOWI/INN METAR and TAF weather

Enter ICAO airport designator
Station Type Date Time Source
LOWI METAR 2020/08/10 17:50 UTC NOAA

LOWI 101750Z 29014KT 260V340 9999 VCTS FEW070CB BKN080 26/13 Q1015 WS R26 BECMG VRB03KT


Station Type Date Time Source
LOWI Decoded METAR 2020/08/10 17:50 UTC NOAA

Innsbruck-Flughafen, Austria (LOWI) 47-16N 011-21E 593M
Aug 10, 2020 - 01:50 PM EDT / 2020.08.10 1750 UTC
Wind: from the WNW (290 degrees) at 16 MPH (14 KT) (direction variable):0
Visibility: greater than 7 mile(s):0
Sky conditions: mostly cloudy
Weather: thunder in the vicinity; Cumulonimbus clouds observed
Temperature: 78 F (26 C)
Dew Point: 55 F (13 C)
Relative Humidity: 44%
Pressure (altimeter): 29.97 in. Hg (1015 hPa)
ob: LOWI 101750Z 29014KT 260V340 9999 VCTS FEW070CB BKN080 26/13 Q1015 WS R26 BECMG VRB03KT
cycle: 18

Station Type Date Time Source
LOWI TAF 2020/08/10 18:21 UTC NOAA

TAF LOWI 101715Z 1018/1118 08008KT 9999 FEW070 TX28/1113Z TN16/1104Z PROB40
TEMPO 1018/1020 08015G25KT TS FEW070CB
BECMG 1018/1020 VRB02KT
BECMG 1110/1112 08008KT SCT070 FEW070CB
TEMPO 1114/1118 29015G25KT TSRA

Example: see airport list